Time;durP1;ratioP1;P1;durP2;ratioP2;P2;SDS_P1;SDS_P2;PMS_P1;PMS_P2;Temp;Humidity;BMP_temperature;BMP_pressure;BME280_temperature;BME280_humidity;BME280_pressure;Samples;Min_cycle;Max_cycle;Signal;HPM_P1;HPM_P2
2022/07/10 00:00:12;;;;;;;6.70;1.25;;;;;;;18.93;44.04;101642.63;5037576;27;98835;-71
2022/07/10 00:02:39;;;;;;;8.95;2.67;;;;;;;18.83;44.50;101644.09;5038579;27;97848;-71
2022/07/10 00:05:09;;;;;;;7.25;0.82;;;;;;;18.82;44.20;101636.13;5034161;27;99573;-70
2022/07/10 00:07:35;;;;;;;8.63;1.52;;;;;;;18.59;44.83;101643.63;5033008;27;99008;-70
2022/07/10 00:10:02;;;;;;;9.57;1.20;;;;;;;18.71;44.62;101640.25;5037998;27;97550;-70
2022/07/10 00:12:28;;;;;;;10.32;1.45;;;;;;;18.79;44.53;101636.28;5037967;27;98647;-69
2022/07/10 00:14:54;;;;;;;6.97;1.17;;;;;;;18.68;44.62;101643.13;5032043;27;98893;-69
2022/07/10 00:17:21;;;;;;;8.07;1.33;;;;;;;18.73;44.30;101637.50;5032047;27;99334;-71
2022/07/10 00:19:47;;;;;;;5.35;1.20;;;;;;;19.04;44.03;101642.88;5034368;27;97582;-70
2022/07/10 00:22:15;;;;;;;11.88;1.27;;;;;;;18.55;45.47;101636.72;5035984;27;98320;-70
2022/07/10 00:24:42;;;;;;;5.43;1.00;;;;;;;18.47;45.78;101633.53;5034100;27;99870;-69
2022/07/10 00:27:08;;;;;;;10.63;1.15;;;;;;;18.44;45.55;101628.38;5033969;27;97438;-70
2022/07/10 00:29:35;;;;;;;12.38;1.50;;;;;;;18.48;45.34;101642.44;5035923;27;98640;-70
2022/07/10 00:32:01;;;;;;;5.95;1.02;;;;;;;18.55;45.08;101642.06;5035802;27;98848;-69
2022/07/10 00:34:28;;;;;;;5.65;1.30;;;;;;;18.60;44.91;101631.09;5032096;27;99598;-69
2022/07/10 00:36:54;;;;;;;6.05;1.38;;;;;;;18.56;45.27;101627.75;5033921;27;99258;-70
2022/07/10 00:39:22;;;;;;;7.18;1.42;;;;;;;18.82;44.69;101628.09;5034665;27;98534;-71
2022/07/10 00:41:48;;;;;;;8.80;1.00;;;;;;;18.91;44.41;101622.22;5035932;27;98583;-70
2022/07/10 00:44:14;;;;;;;6.32;1.20;;;;;;;18.42;45.48;101627.59;5033025;27;100755;-70
2022/07/10 00:46:41;;;;;;;5.80;1.17;;;;;;;18.53;45.18;101617.16;5034942;27;97615;-70
2022/07/10 00:49:07;;;;;;;7.63;1.00;;;;;;;18.86;44.80;101614.44;5035371;27;98746;-70
2022/07/10 00:51:34;;;;;;;5.13;1.20;;;;;;;17.98;46.42;101618.41;5036721;27;99367;-71
2022/07/10 00:54:01;;;;;;;6.75;1.35;;;;;;;18.24;46.21;101623.22;5034143;27;98934;-70
2022/07/10 00:56:29;;;;;;;6.93;1.00;;;;;;;18.69;44.97;101610.06;5035743;27;98703;-70
2022/07/10 00:58:56;;;;;;;6.60;1.08;;;;;;;18.55;45.46;101614.41;5035002;27;98012;-71
2022/07/10 01:01:23;;;;;;;9.35;1.15;;;;;;;18.34;45.89;101605.72;5033747;27;98907;-70
2022/07/10 01:03:50;;;;;;;7.85;1.13;;;;;;;18.66;45.20;101607.53;5032758;27;99840;-71
2022/07/10 01:06:17;;;;;;;7.10;1.02;;;;;;;18.42;45.44;101600.81;5035025;27;98939;-71
2022/07/10 01:08:44;;;;;;;3.75;1.00;;;;;;;18.32;45.83;101607.59;5034323;27;99280;-71
2022/07/10 01:11:12;;;;;;;7.53;1.73;;;;;;;18.35;46.30;101598.56;5033197;27;98827;-71
2022/07/10 01:13:40;;;;;;;6.00;0.90;;;;;;;18.30;46.23;101593.47;5031701;27;99292;-70
2022/07/10 01:16:06;;;;;;;5.28;1.08;;;;;;;17.88;47.12;101604.63;5033423;27;100185;-71
2022/07/10 01:18:33;;;;;;;7.50;0.80;;;;;;;17.92;47.06;101587.47;5033298;27;98884;-70
2022/07/10 01:21:01;;;;;;;6.88;1.20;;;;;;;18.13;46.77;101594.38;5035108;27;98661;-69
2022/07/10 01:23:27;;;;;;;4.63;0.52;;;;;;;18.50;45.86;101595.06;5033340;27;101420;-70
2022/07/10 01:25:54;;;;;;;5.32;1.00;;;;;;;18.45;46.09;101581.91;5035133;27;98774;-71
2022/07/10 01:28:22;;;;;;;7.60;1.25;;;;;;;18.19;46.25;101577.97;5033002;27;97932;-69
2022/07/10 01:30:48;;;;;;;8.50;1.15;;;;;;;18.08;47.07;101583.06;5033292;27;98688;-69
2022/07/10 01:33:15;;;;;;;6.03;1.00;;;;;;;18.43;46.35;101583.81;5033398;27;99488;-69
2022/07/10 01:35:41;;;;;;;3.97;0.95;;;;;;;18.74;45.27;101576.78;5035590;27;98891;-69
2022/07/10 01:38:09;;;;;;;3.00;0.60;;;;;;;18.76;45.45;101590.97;5038579;27;98658;-69
2022/07/10 01:40:35;;;;;;;3.58;0.90;;;;;;;18.62;45.51;101592.59;5033812;27;97766;-70
2022/07/10 01:43:02;;;;;;;6.95;1.23;;;;;;;18.91;44.86;101590.06;5033556;27;99853;-71
2022/07/10 01:45:28;;;;;;;9.57;1.25;;;;;;;18.78;45.44;101581.00;5038473;27;98941;-70
2022/07/10 01:47:54;;;;;;;5.70;0.70;;;;;;;18.60;45.57;101570.41;5036400;27;98814;-72
2022/07/10 01:50:21;;;;;;;4.95;0.80;;;;;;;18.39;46.22;101574.22;5032441;27;98740;-71
2022/07/10 01:52:47;;;;;;;5.35;0.80;;;;;;;18.35;46.36;101586.06;5033107;27;99316;-72
2022/07/10 01:55:15;;;;;;;5.32;1.05;;;;;;;18.47;46.33;101595.22;5036860;27;99131;-71
2022/07/10 01:57:41;;;;;;;4.43;0.75;;;;;;;18.86;45.23;101586.81;5034974;27;97687;-71
2022/07/10 02:00:09;;;;;;;4.63;1.58;;;;;;;18.87;44.92;101584.03;5033491;27;98672;-71
2022/07/10 02:02:35;;;;;;;4.93;0.50;;;;;;;18.54;45.57;101583.22;5032721;27;99097;-71
2022/07/10 02:05:01;;;;;;;4.05;1.27;;;;;;;18.40;46.00;101589.34;5037655;27;98971;-71
2022/07/10 02:07:27;;;;;;;;;;;;;;;18.74;45.26;101588.38;5037450;27;98789;-70
2022/07/10 02:09:54;;;;;;;7.18;0.93;;;;;;;19.04;44.65;101596.47;5037418;27;96825;-71
2022/07/10 02:12:21;;;;;;;2.95;0.60;;;;;;;18.97;44.54;101595.94;5037079;27;99017;-71
2022/07/10 02:14:48;;;;;;;3.00;0.50;;;;;;;19.08;44.66;101592.69;5034219;27;99247;-71
2022/07/10 02:17:15;;;;;;;6.55;0.90;;;;;;;18.75;45.36;101589.22;5037395;27;97691;-71
2022/07/10 02:19:42;;;;;;;5.07;1.13;;;;;;;18.65;45.86;101588.88;5032021;27;97700;-71
2022/07/10 02:22:08;;;;;;;4.57;0.80;;;;;;;18.65;46.29;101586.19;5035432;27;99392;-72
2022/07/10 02:24:35;;;;;;;2.67;0.65;;;;;;;18.08;47.70;101599.09;5035241;27;99057;-72
2022/07/10 02:27:01;;;;;;;4.55;0.85;;;;;;;17.61;49.33;101587.34;5035389;27;99091;-72
2022/07/10 02:29:29;;;;;;;6.45;0.80;;;;;;;17.84;48.82;101585.22;5038485;27;98994;-71
2022/07/10 02:31:55;;;;;;;4.72;0.88;;;;;;;18.04;48.50;101577.97;5039620;27;101122;-72
2022/07/10 02:34:22;;;;;;;5.53;0.70;;;;;;;18.17;48.01;101587.06;5033770;27;98860;-72
2022/07/10 02:36:48;;;;;;;4.38;0.77;;;;;;;18.45;47.45;101581.03;5033436;27;96874;-71
2022/07/10 02:39:14;;;;;;;4.40;0.60;;;;;;;18.05;48.42;101574.34;5033949;27;98845;-71
2022/07/10 02:41:41;;;;;;;5.70;0.52;;;;;;;18.06;48.54;101586.75;5034993;27;99066;-71
2022/07/10 02:44:07;;;;;;;5.22;0.80;;;;;;;18.12;48.21;101573.91;5036150;27;99123;-71
2022/07/10 02:46:35;;;;;;;4.57;0.70;;;;;;;17.55;49.70;101585.81;5034216;27;98718;-72
2022/07/10 02:49:01;;;;;;;8.85;0.88;;;;;;;17.70;49.13;101578.88;5032152;27;97164;-71
2022/07/10 02:51:29;;;;;;;3.33;0.80;;;;;;;17.74;49.25;101577.75;5037663;27;97810;-70
2022/07/10 02:53:55;;;;;;;7.38;1.40;;;;;;;17.82;48.88;101573.75;5031905;27;99460;-71
2022/07/10 02:56:22;;;;;;;4.07;0.47;;;;;;;18.00;48.63;101569.22;5037769;27;98439;-71
2022/07/10 02:58:48;;;;;;;5.40;0.52;;;;;;;18.08;48.30;101572.34;5033287;27;98927;-70
2022/07/10 03:01:14;;;;;;;4.28;0.88;;;;;;;17.43;49.81;101581.09;5032526;27;98722;-70
2022/07/10 03:03:42;;;;;;;6.68;0.85;;;;;;;17.67;49.36;101577.19;5031415;27;98828;-71
2022/07/10 03:06:08;;;;;;;4.13;0.60;;;;;;;17.74;49.21;101573.28;5036240;27;98804;-71
2022/07/10 03:08:35;;;;;;;5.85;0.70;;;;;;;17.80;49.08;101572.94;5032239;27;97665;-72
2022/07/10 03:11:01;;;;;;;5.53;1.23;;;;;;;18.01;48.64;101572.75;5033970;27;99300;-71
2022/07/10 03:13:28;;;;;;;3.10;0.65;;;;;;;18.32;47.82;101565.66;5031328;27;98750;-71
2022/07/10 03:15:54;;;;;;;7.07;1.02;;;;;;;17.99;48.42;101567.47;5034150;27;99010;-70
2022/07/10 03:18:21;;;;;;;4.20;0.65;;;;;;;18.02;48.86;101570.00;5030855;27;98840;-72
2022/07/10 03:20:49;;;;;;;5.05;0.95;;;;;;;18.12;48.23;101571.22;5031057;27;98841;-71
2022/07/10 03:23:15;;;;;;;4.03;0.63;;;;;;;18.21;48.24;101577.91;5033979;27;98943;-72
2022/07/10 03:25:41;;;;;;;8.05;1.20;;;;;;;18.13;48.67;101572.09;5035772;27;97322;-71
2022/07/10 03:28:08;;;;;;;5.22;0.65;;;;;;;18.11;48.66;101571.34;5035675;27;97738;-70
2022/07/10 03:30:34;;;;;;;4.35;0.63;;;;;;;17.54;50.30;101568.91;5031856;27;99468;-70
2022/07/10 03:33:03;;;;;;;5.80;1.27;;;;;;;17.70;50.28;101566.38;5032874;27;99561;-71
2022/07/10 03:35:31;;;;;;;3.33;0.63;;;;;;;17.54;50.58;101576.06;5034174;27;98613;-72
2022/07/10 03:37:58;;;;;;;6.75;0.77;;;;;;;17.59;50.80;101563.31;5030166;27;98622;-71
2022/07/10 03:40:26;;;;;;;7.18;1.15;;;;;;;17.19;51.58;101569.00;5032014;27;101216;-71
2022/07/10 03:42:52;;;;;;;5.20;1.05;;;;;;;17.37;51.76;101573.41;5032566;27;98819;-71
2022/07/10 03:45:19;;;;;;;5.20;0.82;;;;;;;17.68;50.80;101557.56;5037445;27;98742;-71
2022/07/10 03:47:45;;;;;;;3.78;0.70;;;;;;;17.69;51.14;101569.97;5032783;27;98569;-70
2022/07/10 03:50:12;;;;;;;4.18;0.68;;;;;;;17.89;50.45;101559.09;5032745;27;98851;-71
2022/07/10 03:52:38;;;;;;;5.15;0.70;;;;;;;17.98;50.24;101556.91;5032263;27;100804;-71
2022/07/10 03:55:07;;;;;;;4.93;0.55;;;;;;;18.28;49.43;101558.78;5033774;27;97779;-72
2022/07/10 04:00:17;;;;;;;6.38;1.15;;;;;;;17.66;50.89;101558.56;5030246;27;98538;-72
2022/07/10 04:02:44;;;;;;;6.95;0.98;;;;;;;17.86;50.49;101561.06;5032442;27;98881;-72
2022/07/10 04:05:10;;;;;;;3.17;0.63;;;;;;;17.78;50.69;101558.81;5049529;27;97637;-72
2022/07/10 04:07:37;;;;;;;6.30;0.93;;;;;;;17.88;50.83;101565.41;5049251;27;97351;-71
2022/07/10 04:10:06;;;;;;;4.07;0.82;;;;;;;17.75;51.08;101561.63;5051345;27;99271;-71
2022/07/10 04:12:33;;;;;;;6.90;0.95;;;;;;;17.53;51.67;101563.66;5044077;27;100868;-73
2022/07/10 04:14:59;;;;;;;4.88;0.68;;;;;;;17.90;50.72;101568.84;5047755;27;96722;-72
2022/07/10 04:17:25;;;;;;;6.22;0.93;;;;;;;18.26;49.80;101566.00;5047521;27;97359;-72
2022/07/10 04:19:52;;;;;;;3.83;0.75;;;;;;;18.65;48.85;101562.09;5046987;27;98967;-72
2022/07/10 04:22:18;;;;;;;3.05;0.70;;;;;;;18.64;48.47;101566.59;5049923;27;99040;-72
2022/07/10 04:24:44;;;;;;;8.20;1.13;;;;;;;18.14;49.81;101561.31;5050594;27;96764;-71
2022/07/10 04:27:12;;;;;;;3.03;0.55;;;;;;;17.99;50.02;101555.91;5050780;27;96872;-70
2022/07/10 04:29:39;;;;;;;5.47;0.82;;;;;;;17.60;51.30;101559.72;5050418;27;97626;-72
2022/07/10 04:32:06;;;;;;;3.60;1.10;;;;;;;18.02;50.50;101559.31;5050504;27;98890;-71
2022/07/10 04:34:32;;;;;;;4.90;1.00;;;;;;;18.21;49.95;101554.69;5050923;27;97485;-71
2022/07/10 04:36:58;;;;;;;4.28;1.25;;;;;;;18.15;50.05;101546.16;5052857;27;96847;-72
2022/07/10 04:39:25;;;;;;;6.00;0.82;;;;;;;18.31;49.71;101549.72;5054629;27;99133;-71
2022/07/10 04:41:51;;;;;;;9.00;1.25;;;;;;;18.00;50.43;101552.31;5054854;27;99008;-71
2022/07/10 04:44:19;;;;;;;4.03;0.90;;;;;;;17.86;51.07;101542.34;5053905;27;97543;-71
2022/07/10 04:46:46;;;;;;;4.25;0.85;;;;;;;18.06;50.40;101543.94;5054576;27;97205;-72
2022/07/10 04:49:12;;;;;;;10.80;0.70;;;;;;;17.97;50.83;101542.66;5050401;27;100070;-70
2022/07/10 04:51:38;;;;;;;3.47;0.68;;;;;;;18.15;50.33;101547.00;5055066;27;99485;-72
2022/07/10 04:54:05;;;;;;;8.40;0.95;;;;;;;18.35;49.60;101548.59;5054035;27;96772;-71
2022/07/10 04:56:31;;;;;;;9.43;1.30;;;;;;;18.14;50.32;101541.72;5053400;27;96880;-72
2022/07/10 04:58:58;;;;;;;4.07;0.68;;;;;;;17.97;50.62;101542.66;5052799;27;99188;-71
2022/07/10 05:01:25;;;;;;;7.15;0.82;;;;;;;16.88;53.73;101554.47;5051224;27;98917;-72
2022/07/10 05:03:52;;;;;;;6.95;0.73;;;;;;;17.26;52.96;101549.91;5051680;27;96828;-70
2022/07/10 05:06:18;;;;;;;6.05;1.15;;;;;;;17.45;52.53;101544.50;5050108;27;96886;-70
2022/07/10 05:08:45;;;;;;;6.25;0.80;;;;;;;17.92;51.10;101545.56;5051434;27;98932;-70
2022/07/10 05:11:11;;;;;;;7.75;1.10;;;;;;;18.30;50.11;101548.00;5049013;27;98758;-70
2022/07/10 05:13:38;;;;;;;6.32;1.15;;;;;;;18.11;50.56;101548.13;5053827;27;96691;-70
2022/07/10 05:16:05;;;;;;;7.30;1.25;;;;;;;18.25;50.18;101544.69;5051802;27;96933;-70
2022/07/10 05:18:33;;;;;;;5.88;1.42;;;;;;;17.90;51.17;101549.28;5051252;27;101467;-70
2022/07/10 05:20:59;;;;;;;8.65;1.15;;;;;;;17.97;51.04;101542.66;5052268;27;99671;-69
2022/07/10 05:23:25;;;;;;;3.53;0.60;;;;;;;17.86;51.28;101545.88;5052849;27;97053;-70
2022/07/10 05:25:52;;;;;;;5.57;0.95;;;;;;;17.95;51.18;101543.69;5048404;27;96932;-70
2022/07/10 05:28:18;;;;;;;7.65;1.30;;;;;;;17.64;51.78;101541.78;5050008;27;99676;-70
2022/07/10 05:30:44;;;;;;;15.65;1.10;;;;;;;18.15;50.77;101551.50;5052319;27;99665;-70
2022/07/10 05:33:11;;;;;;;5.90;0.93;;;;;;;18.74;49.24;101547.34;5052825;27;97302;-70
2022/07/10 05:35:38;;;;;;;5.07;1.00;;;;;;;18.75;48.92;101549.06;5051520;27;97328;-70
2022/07/10 05:38:05;;;;;;;6.25;1.58;;;;;;;19.03;48.45;101551.91;5051766;27;99666;-70
2022/07/10 05:40:31;;;;;;;9.07;1.30;;;;;;;18.75;48.78;101546.41;5051638;27;98779;-70
2022/07/10 05:42:58;;;;;;;7.68;1.23;;;;;;;18.44;49.76;101545.41;5049339;27;97241;-71
2022/07/10 05:45:24;;;;;;;6.97;1.00;;;;;;;18.79;49.02;101555.97;5052862;27;97244;-70
2022/07/10 05:47:51;;;;;;;3.85;0.98;;;;;;;18.85;48.88;101542.22;5049717;27;97912;-69
2022/07/10 05:50:17;;;;;;;6.95;1.20;;;;;;;19.05;48.43;101549.97;5049413;27;97518;-69
2022/07/10 05:52:45;;;;;;;9.68;1.67;;;;;;;19.15;47.67;101544.97;5051442;27;96932;-70
2022/07/10 05:55:12;;;;;;;7.68;1.38;;;;;;;19.37;47.09;101548.09;5050956;27;96805;-70
2022/07/10 05:57:38;;;;;;;6.10;1.10;;;;;;;18.97;47.67;101550.41;5050496;27;99104;-70
2022/07/10 06:00:06;;;;;;;3.88;1.10;;;;;;;18.44;49.09;101553.44;5049070;27;97238;-70
2022/07/10 06:02:32;;;;;;;5.70;1.23;;;;;;;18.56;49.05;101557.28;5045219;27;97120;-70
2022/07/10 06:04:59;;;;;;;5.03;1.67;;;;;;;18.18;49.78;101556.69;5051906;27;96713;-70
2022/07/10 06:07:25;;;;;;;6.85;1.10;;;;;;;18.36;49.43;101550.31;5049627;27;101308;-70
2022/07/10 06:09:53;;;;;;;8.13;1.13;;;;;;;18.55;49.38;101553.75;5052492;27;99383;-70
2022/07/10 06:12:20;;;;;;;7.03;2.08;;;;;;;19.01;47.87;101562.69;5049200;27;96884;-70
2022/07/10 06:14:46;;;;;;;7.28;1.40;;;;;;;19.40;47.20;101553.28;5051462;27;96969;-70
2022/07/10 06:17:13;;;;;;;6.53;1.00;;;;;;;19.26;46.92;101556.78;5046431;27;98862;-71
2022/07/10 06:19:39;;;;;;;6.18;1.15;;;;;;;18.66;48.04;101556.66;5049230;27;99535;-69
2022/07/10 06:24:50;;;;;;;5.70;1.15;;;;;;;19.75;45.45;101557.44;5047366;27;96643;-70
2022/07/10 06:27:18;;;;;;;9.13;1.42;;;;;;;19.38;46.54;101550.69;5049850;27;99131;-70
2022/07/10 06:29:44;;;;;;;3.28;0.75;;;;;;;19.21;46.44;101549.97;5047250;27;98851;-70
2022/07/10 06:32:11;;;;;;;8.43;1.20;;;;;;;18.88;47.46;101558.13;5051622;27;97492;-70
2022/07/10 06:34:37;;;;;;;4.53;1.13;;;;;;;19.39;46.56;101551.53;5048762;27;97488;-71
2022/07/10 06:37:04;;;;;;;6.47;1.25;;;;;;;19.25;46.68;101560.41;5049589;27;102691;-70
2022/07/10 06:39:34;;;;;;;6.07;1.40;;;;;;;19.55;45.82;101554.22;5047139;27;98708;-70
2022/07/10 06:42:01;;;;;;;12.85;1.60;;;;;;;19.42;46.13;101557.59;5050949;27;97134;-70
2022/07/10 06:44:28;;;;;;;7.47;1.30;;;;;;;19.98;44.80;101556.00;5051255;27;96906;-70
2022/07/10 06:49:35;;;;;;;7.78;1.23;;;;;;;19.58;45.52;101559.38;5046660;27;98638;-70
2022/07/10 06:52:02;;;;;;;11.75;1.30;;;;;;;19.42;46.00;101554.06;5051312;27;97193;-70
2022/07/10 06:54:28;;;;;;;6.53;1.30;;;;;;;19.35;46.20;101560.72;5050635;27;97031;-69
2022/07/10 06:56:55;;;;;;;6.97;1.02;;;;;;;19.52;46.32;101562.44;5050358;27;99196;-70
2022/07/10 06:59:21;;;;;;;12.82;1.23;;;;;;;20.09;44.37;101555.31;5050465;27;99080;-70
2022/07/10 07:01:49;;;;;;;7.78;1.40;;;;;;;20.19;43.52;101553.81;5049032;27;97229;-71
2022/07/10 07:04:15;;;;;;;12.90;1.95;;;;;;;20.26;43.34;101553.31;5051190;27;97416;-70
2022/07/10 07:06:42;;;;;;;9.52;1.17;;;;;;;19.85;43.79;101557.72;5050113;27;100217;-69
2022/07/10 07:09:08;;;;;;;6.97;1.15;;;;;;;19.81;43.89;101553.50;5050116;27;98937;-70
2022/07/10 07:11:35;;;;;;;6.40;1.45;;;;;;;19.88;44.04;101546.81;5049294;27;96710;-70
2022/07/10 07:14:01;;;;;;;9.15;1.35;;;;;;;20.30;43.42;101549.47;5051253;27;97108;-70
2022/07/10 07:16:38;;;;;;;10.73;1.80;;;;;;;20.70;43.15;101552.31;5050336;27;99698;-70
2022/07/10 07:19:06;;;;;;;5.63;1.10;;;;;;;21.48;41.34;101548.84;5050026;27;99239;-72
2022/07/10 07:24:18;;;;;;;5.00;1.30;;;;;;;21.24;40.29;101560.41;5050361;27;96964;-70
2022/07/10 07:26:44;;;;;;;6.25;0.98;;;;;;;21.15;39.53;101553.78;5050163;27;97891;-70
2022/07/10 07:29:11;;;;;;;8.48;1.42;;;;;;;20.73;39.44;101541.41;5050601;27;101445;-70
2022/07/10 07:31:37;;;;;;;13.60;1.50;;;;;;;20.70;39.69;101546.94;5044931;27;97556;-70
2022/07/10 07:34:05;;;;;;;11.73;1.77;;;;;;;21.17;39.15;101540.28;5045996;27;96956;-70
2022/07/10 07:36:32;;;;;;;7.40;1.98;;;;;;;21.58;38.11;101548.25;5048557;27;99134;-71
2022/07/10 07:38:59;;;;;;;5.00;1.52;;;;;;;21.81;38.07;101540.28;5049594;27;98740;-69
2022/07/10 07:41:25;;;;;;;4.15;1.13;;;;;;;21.45;38.60;101553.59;5048704;27;96598;-71
2022/07/10 07:43:52;;;;;;;8.70;1.45;;;;;;;21.69;37.89;101551.91;5050838;27;97387;-70
2022/07/10 07:46:19;;;;;;;8.85;1.30;;;;;;;21.62;38.08;101558.66;5048493;27;98726;-70
2022/07/10 07:48:46;;;;;;;10.05;1.42;;;;;;;20.70;39.89;101555.00;5047360;27;101096;-70
2022/07/10 07:51:14;;;;;;;6.45;1.30;;;;;;;20.40;40.26;101544.44;5047569;27;98808;-70
2022/07/10 07:53:40;;;;;;;5.70;1.80;;;;;;;21.02;39.01;101547.50;5047031;27;97564;-70
2022/07/10 07:56:07;;;;;;;11.82;1.75;;;;;;;20.96;39.03;101545.22;5047734;27;100499;-70
2022/07/10 07:58:34;;;;;;;5.85;1.42;;;;;;;21.59;37.37;101532.00;5045697;27;99269;-71
2022/07/10 08:01:00;;;;;;;6.25;1.35;;;;;;;21.82;37.12;101533.09;5046477;27;97364;-71
2022/07/10 08:03:26;;;;;;;8.77;1.55;;;;;;;21.99;36.57;101534.63;5047020;27;96960;-71
2022/07/10 08:05:53;;;;;;;11.38;1.70;;;;;;;22.03;36.06;101533.44;5045727;27;101687;-70
2022/07/10 08:08:21;;;;;;;8.63;1.60;;;;;;;22.70;35.32;101528.56;5046087;27;101074;-72
2022/07/10 08:10:47;;;;;;;6.22;1.77;;;;;;;22.84;34.28;101518.50;5047520;27;97161;-70
2022/07/10 08:13:14;;;;;;;12.32;3.20;;;;;;;22.91;35.07;101525.16;5048936;27;97576;-71
2022/07/10 08:15:40;;;;;;;4.88;1.20;;;;;;;23.34;34.12;101530.84;5051756;27;98930;-70
2022/07/10 08:18:07;;;;;;;8.68;1.33;;;;;;;23.22;33.64;101529.09;5051049;27;100750;-70
2022/07/10 08:20:34;;;;;;;6.90;1.50;;;;;;;22.79;34.22;101527.88;5053234;27;97692;-71
2022/07/10 08:23:01;;;;;;;11.15;1.58;;;;;;;22.51;34.52;101537.13;5051520;27;96903;-70
2022/07/10 08:25:30;;;;;;;8.68;1.45;;;;;;;22.53;34.40;101536.03;5051428;27;99649;-70
2022/07/10 08:28:00;;;;;;;8.25;1.40;;;;;;;22.57;34.37;101532.16;5049115;27;99413;-70
2022/07/10 08:30:30;;;;;;;9.70;1.67;;;;;;;21.97;35.45;101536.56;5050103;27;96783;-71
2022/07/10 08:32:56;;;;;;;10.18;1.15;;;;;;;21.07;37.27;101542.69;5052274;27;97509;-72
2022/07/10 08:35:23;;;;;;;8.13;1.38;;;;;;;20.91;38.04;101532.13;5049435;27;99212;-71
2022/07/10 08:37:49;;;;;;;10.65;1.67;;;;;;;20.49;38.54;101545.66;5048566;27;99246;-72
2022/07/10 08:40:18;;;;;;;8.05;1.40;;;;;;;20.71;38.62;101546.00;5051484;27;97255;-70
2022/07/10 08:42:46;;;;;;;6.50;1.33;;;;;;;21.40;37.62;101553.88;5048981;27;97350;-70
2022/07/10 08:45:13;;;;;;;6.47;1.65;;;;;;;21.80;36.59;101548.47;5050901;27;98868;-70
2022/07/10 08:47:42;;;;;;;9.77;1.45;;;;;;;20.78;38.76;101552.69;5046518;27;101790;-70
2022/07/10 08:50:17;;;;;;;6.85;1.67;;;;;;;21.67;37.38;101555.66;5051648;27;96791;-71
2022/07/10 08:52:46;;;;;;;6.57;1.38;;;;;;;21.98;36.76;101551.75;5052719;27;97062;-70
2022/07/10 08:55:14;;;;;;;10.85;1.60;;;;;;;22.61;35.66;101540.88;5052006;27;99202;-70
2022/07/10 08:57:41;;;;;;;4.13;1.10;;;;;;;21.39;37.25;101556.72;5050539;27;101589;-70
2022/07/10 09:00:13;;;;;;;8.10;1.27;;;;;;;21.02;38.55;101559.13;5049842;27;97102;-71
2022/07/10 09:02:39;;;;;;;12.10;1.75;;;;;;;21.49;37.13;101557.78;5044725;27;97757;-69
2022/07/10 09:05:08;;;;;;;6.85;1.60;;;;;;;22.12;36.11;101557.03;5044442;27;98561;-71
2022/07/10 09:07:36;;;;;;;6.88;1.25;;;;;;;21.99;36.14;101561.53;5048546;27;99042;-70
2022/07/10 09:10:07;;;;;;;9.95;1.55;;;;;;;21.86;35.73;101556.97;5045020;27;98467;-71
2022/07/10 09:12:51;;;;;;;9.15;1.35;;;;;;;22.13;35.08;101548.81;5050516;27;97853;-71
2022/07/10 09:15:21;;;;;;;9.45;1.30;;;;;;;21.92;34.53;101557.53;5047218;27;100917;-72
2022/07/10 09:17:55;;;;;;;6.43;1.20;;;;;;;22.52;33.81;101561.25;5047114;27;98981;-70
2022/07/10 09:20:30;;;;;;;10.50;2.00;;;;;;;23.10;32.05;101556.13;5050611;27;98434;-70
2022/07/10 09:22:57;;;;;;;11.57;1.60;;;;;;;23.27;32.03;101559.25;5049487;27;97012;-70
2022/07/10 09:25:31;;;;;;;8.90;1.85;;;;;;;22.72;33.16;101565.16;5047337;27;99277;-70
2022/07/10 09:27:59;;;;;;;8.70;1.67;;;;;;;22.49;33.77;101558.78;5045971;27;99481;-70
2022/07/10 09:30:35;;;;;;;4.85;1.48;;;;;;;22.13;33.81;101556.03;5048490;27;97259;-70
2022/07/10 09:33:25;;;;;;;6.35;1.30;;;;;;;22.59;33.71;101553.56;5051811;27;96938;-70
2022/07/10 09:36:10;;;;;;;11.38;1.58;;;;;;;23.37;32.13;101560.28;5048754;27;99067;-69
2022/07/10 09:38:55;;;;;;;11.80;2.78;;;;;;;23.30;32.59;101552.78;5048782;27;98644;-69
2022/07/10 09:41:24;;;;;;;10.35;1.67;;;;;;;23.15;32.23;101551.25;5049401;27;97738;-70
2022/07/10 09:43:51;;;;;;;8.10;1.65;;;;;;;23.01;33.05;101553.13;5050625;27;96963;-70
2022/07/10 09:46:21;;;;;;;9.90;1.33;;;;;;;22.78;32.86;101547.72;5051501;27;101555;-71
2022/07/10 09:48:48;;;;;;;10.55;1.52;;;;;;;22.70;33.70;101553.66;5050324;27;99940;-71
2022/07/10 09:51:15;;;;;;;8.05;1.58;;;;;;;22.49;33.72;101550.72;5051129;27;96882;-71
2022/07/10 09:53:43;;;;;;;6.95;1.30;;;;;;;22.69;33.33;101551.09;5051630;27;97407;-72
2022/07/10 09:56:11;;;;;;;11.95;2.00;;;;;;;22.33;34.00;101555.47;5051714;27;99296;-72
2022/07/10 09:58:39;;;;;;;9.18;1.63;;;;;;;22.22;33.87;101550.00;5050372;27;98772;-71
2022/07/10 10:01:06;;;;;;;5.32;1.33;;;;;;;21.96;34.45;101551.84;5052960;27;97078;-71
2022/07/10 10:03:36;;;;;;;9.13;1.80;;;;;;;21.14;35.83;101567.31;5051334;27;97764;-72
2022/07/10 10:06:06;;;;;;;10.55;1.58;;;;;;;21.55;34.99;101554.69;5051872;27;99027;-72
2022/07/10 10:08:45;;;;;;;8.25;1.42;;;;;;;22.02;34.65;101550.56;5049276;27;98839;-73
2022/07/10 10:11:16;;;;;;;5.72;1.27;;;;;;;22.60;33.77;101558.84;5049645;27;97340;-73
2022/07/10 10:13:43;;;;;;;11.55;2.22;;;;;;;22.83;33.82;101561.75;5051623;27;97265;-72
2022/07/10 10:16:10;;;;;;;11.05;1.83;;;;;;;22.46;33.42;101561.69;5049895;27;99074;-72
2022/07/10 10:20:36;;;;;;;10.77;1.90;;;;;;;22.65;33.37;101569.28;5047521;27;98830;-73
2022/07/10 10:21:25;;;;;;;11.18;2.03;;;;;;;22.76;33.10;101561.34;5044496;27;97143;-71
2022/07/10 10:23:54;;;;;;;7.85;2.78;;;;;;;22.37;33.67;101564.19;5048543;27;96873;-72
2022/07/10 10:26:22;;;;;;;7.03;1.33;;;;;;;22.23;33.81;101560.66;5047828;27;99792;-72
2022/07/10 10:28:48;;;;;;;4.80;1.25;;;;;;;22.76;32.88;101561.34;5048330;27;102002;-71
2022/07/10 10:31:15;;;;;;;7.55;1.95;;;;;;;23.33;31.78;101564.19;5051195;27;96834;-72
2022/07/10 10:33:46;;;;;;;10.40;1.40;;;;;;;23.20;31.40;101562.53;5051806;27;97364;-71
2022/07/10 10:36:17;;;;;;;8.13;1.77;;;;;;;23.34;31.58;101560.53;5051637;27;99512;-71
2022/07/10 10:39:09;;;;;;;6.75;1.35;;;;;;;23.74;30.53;101562.88;5050706;27;99132;-71
2022/07/10 10:41:38;;;;;;;5.45;0.95;;;;;;;24.30;29.65;101566.53;5047918;27;96905;-73
2022/07/10 10:44:26;;;;;;;12.23;1.70;;;;;;;24.70;28.93;101572.25;5051039;27;96883;-71
2022/07/10 10:47:05;;;;;;;5.47;1.45;;;;;;;23.88;29.19;101570.75;5046816;27;98524;-73
2022/07/10 10:49:53;;;;;;;12.07;1.35;;;;;;;23.66;29.62;101560.78;5041297;27;98830;-71
2022/07/10 10:52:21;;;;;;;7.53;1.75;;;;;;;23.91;29.30;101565.09;5047703;27;96731;-72
2022/07/10 10:55:03;;;;;;;6.68;2.17;;;;;;;23.19;30.62;101569.75;5047260;27;97951;-72
2022/07/10 10:57:39;;;;;;;5.20;1.50;;;;;;;23.43;30.46;101570.59;5046296;27;101832;-72
2022/07/10 11:00:08;;;;;;;4.30;1.10;;;;;;;24.18;29.33;101572.88;5050633;27;99865;-72
2022/07/10 11:02:36;;;;;;;7.15;1.15;;;;;;;24.47;29.41;101565.19;5048780;27;96873;-71
2022/07/10 11:05:33;;;;;;;15.45;5.28;;;;;;;24.12;29.99;101568.81;5044514;27;98559;-71
2022/07/10 11:08:03;;;;;;;8.70;1.40;;;;;;;23.15;31.56;101565.59;5046091;27;100095;-70
2022/07/10 11:10:30;;;;;;;7.28;1.35;;;;;;;23.26;31.69;101570.16;5050345;27;98795;-70
2022/07/10 11:13:00;;;;;;;9.38;2.30;;;;;;;23.68;31.06;101564.22;5048836;27;96904;-71
2022/07/10 11:15:29;;;;;;;7.75;1.50;;;;;;;24.01;30.84;101560.72;5052062;27;96991;-71
2022/07/10 11:18:03;;;;;;;7.72;1.60;;;;;;;23.94;30.18;101564.03;5048010;27;98907;-72
2022/07/10 11:20:33;;;;;;;9.80;1.08;;;;;;;23.49;30.82;101568.47;5046483;27;98989;-70
2022/07/10 11:23:12;;;;;;;6.35;1.35;;;;;;;23.49;30.58;101577.41;5049139;27;96957;-71
2022/07/10 11:25:44;;;;;;;4.38;0.90;;;;;;;23.60;30.61;101577.44;5050431;27;96788;-70
2022/07/10 11:28:12;;;;;;;9.10;1.75;;;;;;;24.26;29.94;101577.69;5048282;27;100004;-71
2022/07/10 11:30:50;;;;;;;6.95;1.38;;;;;;;24.54;29.49;101569.09;5051328;27;98519;-70
2022/07/10 11:33:18;;;;;;;6.07;1.83;;;;;;;24.78;29.16;101577.03;5048414;27;97077;-69
2022/07/10 11:35:49;;;;;;;13.43;1.67;;;;;;;25.37;29.04;101580.22;5050816;27;96937;-70
2022/07/10 11:38:25;;;;;;;8.82;1.83;;;;;;;25.27;28.31;101584.69;5046871;27;98981;-70